createdAt,value
2022-07-27T06:28:38.819Z,98285.44
2022-07-27T06:38:50.778Z,98273.31
2022-07-27T06:49:04.826Z,98270.56
2022-07-27T06:59:17.829Z,98276.75
2022-07-27T07:09:30.800Z,98291.44
2022-07-27T07:19:43.807Z,98286.56
2022-07-27T07:29:57.816Z,98301.84
2022-07-27T07:40:41.939Z,98292.66
2022-07-27T07:50:44.866Z,98288.38
2022-07-27T08:00:57.846Z,98309.03
2022-07-27T08:11:10.860Z,98321.25
2022-07-27T08:21:23.953Z,98315.44
2022-07-27T08:31:52.220Z,98317.37
2022-07-27T08:42:11.863Z,98307.53
2022-07-27T08:52:24.890Z,98310.03
2022-07-27T09:02:38.029Z,98316.87
2022-07-27T09:12:50.902Z,98308.91
2022-07-27T09:23:04.911Z,98307.53
2022-07-27T09:33:24.924Z,98304.16
2022-07-27T09:44:29.729Z,98310.06
2022-07-27T09:54:16.098Z,98297.31
2022-07-27T10:04:29.075Z,98297.44
2022-07-27T10:14:48.966Z,98293.00
2022-07-27T10:25:06.960Z,98284.78
2022-07-27T10:35:44.989Z,98300.34
2022-07-27T10:46:01.561Z,98300.06
2022-07-27T10:56:16.990Z,98299.88
2022-07-27T11:06:47.814Z,98290.41
2022-07-27T11:17:40.035Z,98307.25
2022-07-27T11:27:47.023Z,98291.69
2022-07-27T11:38:08.041Z,98293.87
2022-07-27T11:48:29.088Z,98302.06
2022-07-27T11:59:10.052Z,98302.66
2022-07-27T12:09:25.101Z,98280.50
2022-07-27T12:19:38.126Z,98276.84
2022-07-27T12:30:03.065Z,98248.09
2022-07-27T12:40:22.094Z,98243.41
2022-07-27T12:50:36.131Z,98249.09
2022-07-27T13:00:49.172Z,98242.84
2022-07-27T13:11:02.164Z,98245.34
2022-07-27T13:21:15.174Z,98240.28
2022-07-27T13:31:34.218Z,98234.31
2022-07-27T13:41:48.140Z,98234.16
2022-07-27T13:52:01.274Z,98229.47
2022-07-27T14:02:14.243Z,98222.19
2022-07-27T14:12:29.216Z,98218.03
2022-07-27T14:22:42.208Z,98225.19
2022-07-27T14:33:02.183Z,98207.12
2022-07-27T14:43:16.251Z,98216.53
2022-07-27T14:53:29.188Z,98201.25
2022-07-27T15:03:42.348Z,98195.00
2022-07-27T15:13:55.222Z,98194.81
2022-07-27T15:24:09.249Z,98195.88
2022-07-27T15:34:28.261Z,98172.47
2022-07-27T15:44:42.230Z,98182.69
2022-07-27T15:54:55.272Z,98189.69
2022-07-27T16:05:08.243Z,98196.28
2022-07-27T16:15:21.274Z,98189.59
2022-07-27T16:26:01.016Z,98193.78
2022-07-27T16:36:14.294Z,98177.81
2022-07-27T16:46:27.316Z,98175.19
2022-07-27T16:56:40.319Z,98190.12
2022-07-27T17:06:53.311Z,98194.56
2022-07-27T17:17:06.353Z,98195.44
2022-07-27T17:27:19.319Z,98199.03
2022-07-27T17:37:56.059Z,98217.16
2022-07-27T17:48:05.335Z,98236.97
2022-07-27T17:58:18.380Z,98230.41
2022-07-27T18:08:32.350Z,98247.03
2022-07-27T18:18:45.377Z,98252.56
2022-07-27T18:29:00.411Z,98257.31
2022-07-27T18:39:16.705Z,98252.47
2022-07-27T18:49:29.521Z,98263.34
2022-07-27T18:59:42.451Z,98281.53
2022-07-27T19:09:55.454Z,98292.59
2022-07-27T19:20:08.468Z,98301.22
2022-07-27T19:30:23.434Z,98313.31
2022-07-27T19:40:45.315Z,98336.38
2022-07-27T19:51:00.970Z,98341.09
2022-07-27T20:01:17.577Z,98348.19
2022-07-27T20:11:30.454Z,98356.41
2022-07-27T20:21:44.798Z,98369.72
2022-07-27T20:32:04.478Z,98393.31
2022-07-27T20:42:18.504Z,98411.16
2022-07-27T20:52:31.557Z,98415.37
2022-07-27T21:02:44.622Z,98426.22
2022-07-27T21:12:57.534Z,98437.06
2022-07-27T21:23:28.539Z,98417.50
2022-07-27T21:33:41.622Z,98430.09
2022-07-27T21:43:54.578Z,98450.38
2022-07-27T21:54:07.587Z,98458.41
2022-07-27T22:04:20.690Z,98453.13
2022-07-27T22:14:33.577Z,98459.13
2022-07-27T22:24:46.579Z,98470.66
2022-07-27T22:35:06.592Z,98467.59
2022-07-27T22:45:19.619Z,98485.13
2022-07-27T22:55:32.621Z,98495.69
2022-07-27T23:05:45.669Z,98503.44
2022-07-27T23:15:58.694Z,98518.16
2022-07-27T23:26:11.633Z,98501.34
2022-07-27T23:36:32.656Z,98509.28
2022-07-27T23:46:45.691Z,98512.34
2022-07-27T23:56:58.660Z,98513.31
